Time;durP1;ratioP1;P1;durP2;ratioP2;P2;SDS_P1;SDS_P2;PMS_P1;PMS_P2;Temp;Humidity;BMP_temperature;BMP_pressure;BME280_temperature;BME280_humidity;BME280_pressure;Samples;Min_cycle;Max_cycle;Signal;HPM_P1;HPM_P2
2022/12/12 00:01:28;;;;;;;;;;;;;;;-0.94;71.13;97429.22;4440920;32;19970;-91
2022/12/12 00:03:54;;;;;;;;;;;;;;;-0.68;70.98;97436.97;4448837;32;19991;-94
2022/12/12 00:06:19;;;;;;;;;;;;;;;-0.64;70.07;97445.50;4430544;32;19985;-89
2022/12/12 00:08:45;;;;;;;;;;;;;;;-0.48;69.55;97438.13;4441023;32;19973;-91
2022/12/12 00:11:11;;;;;;;;;;;;;;;-0.81;69.99;97435.69;4441018;32;19966;-95
2022/12/12 00:13:36;;;;;;;;;;;;;;;-0.85;70.50;97453.03;4440625;32;19981;-85
2022/12/12 00:16:03;;;;;;;;;;;;;;;-0.89;70.71;97456.63;4439277;32;20026;-92
2022/12/12 00:18:28;;;;;;;;;;;;;;;-0.88;70.17;97450.53;4438152;32;20048;-86
2022/12/12 00:20:54;;;;;;;;;;;;;;;-1.23;70.40;97444.66;4442682;32;19985;-88
2022/12/12 00:23:19;;;;;;;;;;;;;;;-0.95;70.49;97446.44;4435280;32;20064;-91
2022/12/12 00:25:45;;;;;;;;;;;;;;;-0.80;69.98;97442.53;4438655;32;19978;-91
2022/12/12 00:28:10;;;;;;;;;;;;;;;-1.02;69.91;97460.44;4436457;32;19978;-86
2022/12/12 00:30:35;;;;;;;;;;;;;;;-0.97;69.73;97450.81;4453823;32;19993;-84
2022/12/12 00:33:00;;;;;;;;;;;;;;;-1.29;70.53;97454.34;4435490;32;19981;-84
2022/12/12 00:35:25;;;;;;;;;;;;;;;-1.24;70.88;97462.78;4455039;32;20028;-89
2022/12/12 00:37:51;;;;;;;;;;;;;;;-1.43;70.92;97472.78;4455426;32;20052;-90
2022/12/12 00:40:16;;;;;;;;;;;;;;;-1.31;70.84;97480.22;4455351;32;20001;-91
2022/12/12 00:42:41;;;;;;;;;;;;;;;-1.29;70.40;97487.94;4454867;32;20293;-94
2022/12/12 00:45:07;;;;;;;;;;;;;;;-1.09;70.00;97513.19;4454541;32;20381;-93
2022/12/12 00:47:32;;;;;;;;;;;;;;;-1.23;70.01;97491.19;4456243;32;19976;-96
2022/12/12 00:49:57;;;;;;;;;;;;;;;-1.46;70.89;97484.06;4456161;32;20280;-93
2022/12/12 00:52:22;;;;;;;;;;;;;;;-1.20;70.23;97479.91;4442077;32;20034;-95
2022/12/12 00:54:48;;;;;;;;;;;;;;;-0.58;68.50;97486.69;4456271;32;20098;-93
2022/12/12 00:57:13;;;;;;;;;;;;;;;-0.82;68.90;97493.47;4456234;32;19975;-93
2022/12/12 00:59:38;;;;;;;;;;;;;;;-0.68;67.68;97493.87;4461424;32;19992;-96
2022/12/12 01:02:03;;;;;;;;;;;;;;;-1.17;69.28;97486.75;4459002;32;19982;-93
2022/12/12 01:04:29;;;;;;;;;;;;;;;-1.14;69.29;97482.34;4460729;32;20074;-96
2022/12/12 01:06:54;;;;;;;;;;;;;;;-1.08;70.12;97474.41;4444456;32;19977;-94
2022/12/12 01:09:19;;;;;;;;;;;;;;;-1.22;70.02;97492.00;4455436;32;20000;-95
2022/12/12 01:11:44;;;;;;;;;;;;;;;-1.05;69.26;97476.88;4456651;32;19981;-93
2022/12/12 01:14:10;;;;;;;;;;;;;;;-1.23;69.31;97488.59;4456028;32;20301;-95
2022/12/12 01:16:35;;;;;;;;;;;;;;;-1.18;69.11;97480.69;4456087;32;20323;-94
2022/12/12 01:19:01;;;;;;;;;;;;;;;-1.15;69.70;97475.47;4457467;32;19973;-96
2022/12/12 01:21:26;;;;;;;;;;;;;;;-1.42;70.17;97488.25;4458473;32;19977;-96
2022/12/12 01:23:51;;;;;;;;;;;;;;;-1.23;69.76;97477.41;4457095;32;20207;-94
2022/12/12 01:26:17;;;;;;;;;;;;;;;-1.28;69.44;97492.19;4456620;32;20021;-96
2022/12/12 01:28:43;;;;;;;;;;;;;;;-1.16;69.00;97497.00;4442319;32;19989;-90
2022/12/12 01:31:09;;;;;;;;;;;;;;;-1.29;69.38;97486.19;4441543;32;19991;-89
2022/12/12 01:33:34;;;;;;;;;;;;;;;-0.94;68.53;97484.31;4455668;32;19992;-92
2022/12/12 01:35:59;;;;;;;;;;;;;;;-1.34;69.12;97494.94;4455634;32;19966;-92
2022/12/12 01:38:24;;;;;;;;;;;;;;;-1.15;69.21;97479.78;4456142;32;19992;-91
2022/12/12 01:40:50;;;;;;;;;;;;;;;-1.20;68.76;97472.16;4455849;32;19977;-96
2022/12/12 01:43:16;;;;;;;;;;;;;;;-1.43;69.67;97480.53;4455495;32;19981;-95
2022/12/12 01:46:01;;;;;;;;;;;;;;;-1.51;69.99;97465.25;4441539;32;20072;-91
2022/12/12 01:48:29;;;;;;;;;;;;;;;-1.32;69.13;97475.09;4442027;32;20341;-95
2022/12/12 01:50:55;;;;;;;;;;;;;;;-1.20;68.75;97461.81;4455671;32;19993;-91
2022/12/12 01:53:20;;;;;;;;;;;;;;;-1.33;68.56;97457.88;4441352;32;20017;-93
2022/12/12 01:55:46;;;;;;;;;;;;;;;-1.29;68.47;97451.75;4455673;32;20331;-95
2022/12/12 01:58:11;;;;;;;;;;;;;;;-0.93;66.87;97449.81;4441252;32;20012;-92
2022/12/12 02:00:36;;;;;;;;;;;;;;;-1.15;66.68;97472.03;4441336;32;20002;-90
2022/12/12 02:03:02;;;;;;;;;;;;;;;-1.03;66.88;97446.66;4455154;32;20012;-92
2022/12/12 02:05:46;;;;;;;;;;;;;;;-1.65;68.35;97455.31;4441170;32;20013;-90
2022/12/12 02:08:11;;;;;;;;;;;;;;;-1.58;68.73;97454.25;4455135;32;19985;-90
2022/12/12 02:10:37;;;;;;;;;;;;;;;-1.58;67.82;97462.00;4455188;32;19995;-92
2022/12/12 02:13:04;;;;;;;;;;;;;;;-1.07;67.05;97449.38;4455078;32;20242;-90
2022/12/12 02:15:31;;;;;;;;;;;;;;;-1.31;67.40;97467.31;4440786;32;20044;-91
2022/12/12 02:18:08;;;;;;;;;;;;;;;-1.36;67.23;97469.16;4440972;32;20005;-94
2022/12/12 02:20:34;;;;;;;;;;;;;;;-1.54;68.24;97477.44;4450089;32;20000;-90
2022/12/12 02:23:14;;;;;;;;;;;;;;;-1.41;67.95;97477.03;4438255;32;19973;-91
2022/12/12 02:25:58;;;;;;;;;;;;;;;-1.58;68.18;97477.50;4445471;32;19965;-91
2022/12/12 02:28:27;;;;;;;;;;;;;;;-1.33;68.05;97468.22;4446729;32;20440;-92
2022/12/12 02:31:11;;;;;;;;;;;;;;;-1.56;68.66;97466.28;4454444;32;20666;-96
2022/12/12 02:33:42;;;;;;;;;;;;;;;-1.42;68.03;97479.66;4465492;32;19945;-96
2022/12/12 02:36:16;;;;;;;;;;;;;;;-1.73;68.68;97456.41;4448303;32;19953;-93
2022/12/12 02:38:52;;;;;;;;;;;;;;;-1.74;68.32;97483.09;4430769;32;19985;-90
2022/12/12 02:41:26;;;;;;;;;;;;;;;-1.33;66.96;97468.22;4451912;32;19984;-90
2022/12/12 02:44:04;;;;;;;;;;;;;;;-1.37;67.05;97466.59;4431010;32;19977;-89
2022/12/12 02:46:34;;;;;;;;;;;;;;;-1.29;67.02;97475.00;4451643;32;20026;-88
2022/12/12 02:49:08;;;;;;;;;;;;;;;-1.25;66.79;97481.78;4430252;32;19993;-88
2022/12/12 02:51:33;;;;;;;;;;;;;;;-1.33;66.95;97479.41;4452569;32;19969;-89
2022/12/12 02:53:59;;;;;;;;;;;;;;;-1.51;67.44;97473.00;4428463;32;20415;-91
2022/12/12 02:56:43;;;;;;;;;;;;;;;-1.29;66.44;97462.09;4453165;32;19988;-90
2022/12/12 02:59:09;;;;;;;;;;;;;;;-1.54;66.73;97477.44;4456901;32;19984;-91
2022/12/12 03:01:34;;;;;;;;;;;;;;;-1.61;66.75;97482.75;4446535;32;19973;-89
2022/12/12 03:09:35;;;;;;;;;;;;;;;-1.19;64.84;97476.44;4429512;32;20030;-90
2022/12/12 03:12:03;;;;;;;;;;;;;;;-1.61;65.17;97480.16;4441349;32;19985;-90
2022/12/12 03:14:42;;;;;;;;;;;;;;;-1.67;65.41;97487.22;4427398;32;19977;-90
2022/12/12 03:17:10;;;;;;;;;;;;;;;-1.32;64.18;97486.25;4432610;32;19988;-90
2022/12/12 03:19:43;;;;;;;;;;;;;;;-1.16;63.10;97480.66;4441319;32;19996;-91
2022/12/12 03:22:14;;;;;;;;;;;;;;;-1.06;62.42;97493.28;4442955;32;19990;-90
2022/12/12 03:24:42;;;;;;;;;;;;;;;-0.98;62.01;97492.22;4448962;32;19992;-90
2022/12/12 03:27:27;;;;;;;;;;;;;;;-0.74;60.68;97491.47;4456688;32;20427;-90
2022/12/12 03:29:54;;;;;;;;;;;;;;;-1.37;63.17;97488.16;4442620;32;20019;-90
2022/12/12 03:32:27;;;;;;;;;;;;;;;-1.34;62.34;97490.62;4442240;32;20471;-90
2022/12/12 03:34:57;;;;;;;;;;;;;;;-1.07;61.12;97494.16;4442674;32;20039;-90
2022/12/12 03:37:23;;;;;;;;;;;;;;;-1.28;61.37;97505.12;4442465;32;19973;-88
2022/12/12 03:39:49;;;;;;;;;;;;;;;-1.54;62.01;97500.69;4456613;32;20086;-88
2022/12/12 03:42:38;;;;;;;;;;;;;;;-1.35;61.59;97493.25;4442515;32;19996;-89
2022/12/12 03:45:08;;;;;;;;;;;;;;;-1.29;60.81;97490.53;4393365;32;20417;-87
2022/12/12 03:47:39;;;;;;;;;;;;;;;-1.47;61.18;97503.06;4380635;32;19992;-89
2022/12/12 03:50:10;;;;;;;;;;;;;;;-1.68;61.63;97509.63;4380600;32;20004;-89
2022/12/12 03:52:40;;;;;;;;;;;;;;;-1.53;61.58;97497.19;4380764;32;19990;-89
2022/12/12 03:55:12;;;;;;;;;;;;;;;-1.56;61.15;97507.59;4392987;32;19982;-89
2022/12/12 03:57:57;;;;;;;;;;;;;;;-0.95;60.14;97508.47;4380586;32;19970;-90
2022/12/12 04:00:22;;;;;;;;;;;;;;;-1.09;60.15;97523.53;4392593;32;19994;-90
2022/12/12 04:03:14;;;;;;;;;;;;;;;-0.48;58.57;97503.63;4393002;32;20395;-89
2022/12/12 04:14:30;;;;;;;;;;;;;;;-0.49;59.38;97537.31;4337674;33;20030;-89
2022/12/12 04:16:59;;;;;;;;;;;;;;;-1.07;60.43;97548.44;4348223;33;19976;-89
2022/12/12 04:25:03;;;;;;;;;;;;;;;-1.27;60.68;97545.56;4408186;32;20047;-89
2022/12/12 04:27:39;;;;;;;;;;;;;;;-1.21;60.49;97566.06;4395366;32;19966;-89
2022/12/12 04:30:05;;;;;;;;;;;;;;;-0.91;59.71;97553.19;4408000;32;20495;-90
2022/12/12 04:32:38;;;;;;;;;;;;;;;-1.24;59.87;97564.41;4407935;32;19986;-89
2022/12/12 04:35:21;;;;;;;;;;;;;;;-1.48;60.36;97565.06;4395344;32;20065;-89
2022/12/12 04:37:49;;;;;;;;;;;;;;;-0.91;59.00;97568.69;4408007;32;19983;-88
2022/12/12 04:40:16;;;;;;;;;;;;;;;-1.15;58.92;97562.47;4407930;32;20421;-88
2022/12/12 04:42:45;;;;;;;;;;;;;;;-0.86;58.55;97569.41;4435772;32;19991;-89
2022/12/12 04:45:18;;;;;;;;;;;;;;;-0.97;58.16;97568.88;4455127;32;20022;-88
2022/12/12 04:47:43;;;;;;;;;;;;;;;-0.55;57.71;97568.53;4456214;32;19991;-91
2022/12/12 04:50:09;;;;;;;;;;;;;;;-1.02;57.96;97576.75;4441862;32;20017;-91
2022/12/12 04:52:34;;;;;;;;;;;;;;;-1.42;58.25;97573.50;4455040;32;20329;-91
2022/12/12 04:55:09;;;;;;;;;;;;;;;-0.71;56.79;97570.72;4456255;32;19993;-87
2022/12/12 04:57:39;;;;;;;;;;;;;;;-1.28;58.03;97587.78;4455027;32;20020;-87
2022/12/12 05:00:05;;;;;;;;;;;;;;;-1.11;57.20;97601.09;4456053;32;19973;-87
2022/12/12 05:02:31;;;;;;;;;;;;;;;-1.60;57.69;97599.81;4455920;32;19997;-87
2022/12/12 05:04:57;;;;;;;;;;;;;;;-1.70;56.52;97600.91;4456151;32;20000;-87
2022/12/12 05:07:34;;;;;;;;;;;;;;;-1.51;56.34;97590.97;4454836;32;19973;-87
2022/12/12 05:09:59;;;;;;;;;;;;;;;-1.52;56.68;97603.03;4454858;32;19994;-87
2022/12/12 05:12:24;;;;;;;;;;;;;;;-1.90;57.67;97620.31;4455961;32;19977;-87
2022/12/12 05:14:50;;;;;;;;;;;;;;;-1.67;57.41;97595.69;4456009;32;20441;-87
2022/12/12 05:17:16;;;;;;;;;;;;;;;-1.89;57.80;97597.91;4454746;32;19970;-87
2022/12/12 05:19:41;;;;;;;;;;;;;;;-1.88;58.26;97623.69;4454696;32;20022;-86
2022/12/12 05:22:07;;;;;;;;;;;;;;;-1.63;57.97;97616.19;4455812;32;19977;-87
2022/12/12 05:24:32;;;;;;;;;;;;;;;-1.87;58.35;97609.91;4455833;32;20038;-87
2022/12/12 05:26:57;;;;;;;;;;;;;;;-1.60;58.34;97617.88;4455697;32;20289;-88
2022/12/12 05:29:23;;;;;;;;;;;;;;;-1.56;58.61;97629.84;4455827;32;19973;-90
2022/12/12 05:31:48;;;;;;;;;;;;;;;-1.57;58.42;97635.88;4455650;32;19978;-91
2022/12/12 05:34:13;;;;;;;;;;;;;;;-1.59;58.61;97627.31;4455762;32;20523;-87
2022/12/12 05:36:39;;;;;;;;;;;;;;;-1.84;59.83;97634.78;4454366;32;20003;-88
2022/12/12 05:39:04;;;;;;;;;;;;;;;-1.37;58.60;97652.59;4454548;32;20002;-87
2022/12/12 05:41:29;;;;;;;;;;;;;;;-1.76;59.07;97632.03;4455566;32;19969;-89
2022/12/12 05:43:54;;;;;;;;;;;;;;;-1.80;59.05;97639.88;4455622;32;19981;-90
2022/12/12 05:46:20;;;;;;;;;;;;;;;-1.90;59.80;97624.63;4455616;32;20353;-89
2022/12/12 05:48:49;;;;;;;;;;;;;;;-1.62;59.25;97641.16;4455580;32;19987;-89
2022/12/12 05:51:14;;;;;;;;;;;;;;;-2.21;60.31;97640.78;4455359;32;19977;-89
2022/12/12 05:53:40;;;;;;;;;;;;;;;-1.83;58.90;97646.84;4455502;32;20039;-90
2022/12/12 05:56:05;;;;;;;;;;;;;;;-1.94;58.91;97644.50;4456108;32;20318;-89
2022/12/12 05:58:31;;;;;;;;;;;;;;;-1.75;57.62;97655.25;4455993;32;20320;-90
2022/12/12 06:00:56;;;;;;;;;;;;;;;-2.02;58.27;97644.66;4457358;32;20085;-90
2022/12/12 06:03:21;;;;;;;;;;;;;;;-2.08;58.70;97651.72;4457290;32;19995;-91
2022/12/12 06:05:46;;;;;;;;;;;;;;;-2.45;59.60;97658.50;4456027;32;19970;-88
2022/12/12 06:08:12;;;;;;;;;;;;;;;-2.17;58.72;97643.25;4457217;32;19988;-87
2022/12/12 06:10:37;;;;;;;;;;;;;;;-2.03;58.42;97647.28;4457203;32;20388;-93
2022/12/12 06:13:02;;;;;;;;;;;;;;;-1.89;57.92;97665.03;4457470;32;19999;-94
2022/12/12 06:15:28;;;;;;;;;;;;;;;-1.64;57.62;97663.59;4457309;32;19973;-92
2022/12/12 06:17:53;;;;;;;;;;;;;;;-1.68;57.31;97667.13;4457120;32;20010;-88
2022/12/12 06:20:19;;;;;;;;;;;;;;;-1.67;57.32;97660.22;4455994;32;20260;-92
2022/12/12 06:22:44;;;;;;;;;;;;;;;-2.15;59.00;97663.03;4457062;32;20051;-89
2022/12/12 06:25:10;;;;;;;;;;;;;;;-2.19;58.78;97670.00;4457181;32;20007;-93
2022/12/12 06:27:35;;;;;;;;;;;;;;;-1.77;58.30;97671.66;4457088;32;20078;-93
2022/12/12 06:30:00;;;;;;;;;;;;;;;-1.93;59.07;97673.72;4457002;32;19981;-91
2022/12/12 06:32:26;;;;;;;;;;;;;;;-2.28;59.77;97675.34;4457033;32;19978;-91
2022/12/12 06:34:51;;;;;;;;;;;;;;;-2.34;60.54;97678.88;4457146;32;19973;-90
2022/12/12 06:37:16;;;;;;;;;;;;;;;-1.95;59.20;97696.12;4457078;32;19988;-91
2022/12/12 06:39:41;;;;;;;;;;;;;;;-1.83;59.26;97685.56;4457142;32;20301;-90
2022/12/12 06:42:07;;;;;;;;;;;;;;;-1.51;58.51;97684.78;4456995;32;20025;-91
2022/12/12 06:44:32;;;;;;;;;;;;;;;-1.71;58.72;97679.25;4456957;32;20338;-91
2022/12/12 06:46:57;;;;;;;;;;;;;;;-1.80;59.12;97688.91;4456997;32;20299;-90
2022/12/12 06:49:22;;;;;;;;;;;;;;;-1.72;59.07;97677.56;4457055;32;20015;-94
2022/12/12 06:51:48;;;;;;;;;;;;;;;-1.27;58.04;97693.69;4457014;32;20364;-94
2022/12/12 06:54:14;;;;;;;;;;;;;;;-1.73;58.91;97697.34;4456975;32;19973;-93
2022/12/12 06:56:40;;;;;;;;;;;;;;;-1.21;57.63;97705.59;4440606;32;19961;-93
2022/12/12 06:59:05;;;;;;;;;;;;;;;-1.23;57.08;97703.06;4441464;32;20030;-93
2022/12/12 07:01:31;;;;;;;;;;;;;;;-1.58;57.96;97702.19;4441388;32;19974;-93
2022/12/12 07:03:57;;;;;;;;;;;;;;;-1.52;58.27;97702.94;4441331;32;20301;-94
2022/12/12 07:06:22;;;;;;;;;;;;;;;-1.47;58.30;97711.41;4441340;32;20300;-94
2022/12/12 07:08:48;;;;;;;;;;;;;;;-1.38;57.47;97721.50;4426949;32;19993;-93
2022/12/12 07:11:14;;;;;;;;;;;;;;;-1.25;57.60;97712.59;4441617;32;19973;-96
2022/12/12 07:13:39;;;;;;;;;;;;;;;-1.23;57.04;97707.37;4428391;32;19981;-95
2022/12/12 07:16:05;;;;;;;;;;;;;;;-1.35;57.39;97707.66;4442109;32;19973;-95
2022/12/12 07:18:30;;;;;;;;;;;;;;;-1.36;57.63;97718.91;4427447;32;19985;-93
2022/12/12 07:20:55;;;;;;;;;;;;;;;-1.74;58.79;97715.47;4441179;32;19973;-93
2022/12/12 07:23:20;;;;;;;;;;;;;;;-1.33;57.87;97714.50;4441663;32;19974;-93
2022/12/12 07:25:46;;;;;;;;;;;;;;;-0.99;57.15;97718.81;4441260;32;20306;-92
2022/12/12 07:28:12;;;;;;;;;;;;;;;-1.28;57.67;97722.13;4427187;32;20277;-94
2022/12/12 07:30:38;;;;;;;;;;;;;;;-1.31;57.59;97725.66;4440936;32;19978;-90
2022/12/12 07:33:03;;;;;;;;;;;;;;;-1.76;59.37;97737.87;4441552;32;20008;-88
2022/12/12 07:35:28;;;;;;;;;;;;;;;-1.35;57.89;97734.38;4442014;32;20261;-89
2022/12/12 07:37:55;;;;;;;;;;;;;;;-1.86;59.46;97735.50;4441298;32;20257;-86
2022/12/12 07:40:20;;;;;;;;;;;;;;;-1.53;58.17;97738.22;4441482;32;20039;-96
2022/12/12 07:42:45;;;;;;;;;;;;;;;-1.12;57.78;97733.81;4441857;32;20008;-85
2022/12/12 07:45:11;;;;;;;;;;;;;;;-0.93;56.94;97731.59;4441295;32;19965;-85
2022/12/12 07:47:36;;;;;;;;;;;;;;;-0.61;56.02;97742.84;4427047;32;19989;-90
2022/12/12 07:50:01;;;;;;;;;;;;;;;-0.47;55.49;97732.13;4427415;32;19982;-83
2022/12/12 07:52:27;;;;;;;;;;;;;;;-0.99;56.45;97739.50;4441269;32;19978;-84
2022/12/12 07:54:52;;;;;;;;;;;;;;;-1.30;57.41;97742.00;4441272;32;20295;-85
2022/12/12 07:57:17;;;;;;;;;;;;;;;-1.07;56.47;97734.53;4441211;32;20009;-85
2022/12/12 07:59:42;;;;;;;;;;;;;;;-1.36;56.67;97747.31;4427258;32;19977;-87
2022/12/12 08:02:09;;;;;;;;;;;;;;;-1.46;57.30;97741.53;4440844;32;19981;-88
2022/12/12 08:04:34;;;;;;;;;;;;;;;-1.30;56.19;97747.16;4427331;32;20395;-88
2022/12/12 08:06:59;;;;;;;;;;;;;;;-1.13;56.21;97747.59;4441137;32;20001;-89
2022/12/12 08:09:24;;;;;;;;;;;;;;;-1.28;56.30;97733.31;4441260;32;20298;-88
2022/12/12 08:11:50;;;;;;;;;;;;;;;-1.41;56.41;97761.19;4427283;32;19992;-88
2022/12/12 08:14:15;;;;;;;;;;;;;;;-1.17;55.34;97763.25;4427170;32;20333;-88
2022/12/12 08:16:40;;;;;;;;;;;;;;;-1.30;56.22;97757.50;4441189;32;20302;-87
2022/12/12 08:19:05;;;;;;;;;;;;;;;-1.17;55.68;97764.09;4441153;32;20266;-88
2022/12/12 08:21:31;;;;;;;;;;;;;;;-1.26;55.75;97764.28;4441162;32;19985;-88
2022/12/12 08:23:56;;;;;;;;;;;;;;;-1.10;55.38;97768.22;4441055;32;19984;-87
2022/12/12 08:26:21;;;;;;;;;;;;;;;-0.76;55.57;97772.53;4441069;32;19993;-88
2022/12/12 08:28:49;;;;;;;;;;;;;;;-0.95;55.06;97779.06;4442762;32;19977;-87
2022/12/12 08:31:15;;;;;;;;;;;;;;;-0.79;54.63;97780.41;4440773;32;20020;-87
2022/12/12 08:33:40;;;;;;;;;;;;;;;-0.96;54.84;97760.13;4440995;32;20011;-86
2022/12/12 08:36:19;;;;;;;;;;;;;;;-1.03;55.18;97758.56;4427125;32;20000;-86
2022/12/12 08:38:45;;;;;;;;;;;;;;;-1.02;55.13;97776.63;4441043;32;19997;-86
2022/12/12 08:41:10;;;;;;;;;;;;;;;-0.91;54.45;97768.59;4441032;32;20223;-87
2022/12/12 08:43:36;;;;;;;;;;;;;;;-0.80;54.34;97770.94;4440890;32;20003;-86
2022/12/12 08:46:02;;;;;;;;;;;;;;;-0.57;53.04;97777.25;4426984;32;20269;-86
2022/12/12 08:48:27;;;;;;;;;;;;;;;-0.46;52.93;97780.41;4426915;32;20021;-87
2022/12/12 08:50:52;;;;;;;;;;;;;;;-1.00;54.32;97779.19;4426964;32;20321;-85
2022/12/12 08:53:18;;;;;;;;;;;;;;;-0.83;53.50;97782.22;4441110;32;20026;-86
2022/12/12 08:55:43;;;;;;;;;;;;;;;-0.77;53.50;97770.88;4440838;32;20298;-88
2022/12/12 08:58:08;;;;;;;;;;;;;;;-0.75;53.97;97771.66;4441528;32;19985;-88
2022/12/12 09:00:34;;;;;;;;;;;;;;;-0.38;52.83;97764.69;4442728;32;19973;-93
2022/12/12 09:02:59;;;;;;;;;;;;;;;-0.29;52.47;97774.75;4421367;32;19969;-94
2022/12/12 09:05:24;;;;;;;;;;;;;;;-0.34;52.94;97777.47;4442161;32;20000;-94
2022/12/12 09:07:50;;;;;;;;;;;;;;;-0.61;52.98;97786.81;4442574;32;20257;-94
2022/12/12 09:10:15;;;;;;;;;;;;;;;-0.17;52.78;97766.69;4457218;32;19988;-95
2022/12/12 09:12:41;;;;;;;;;;;;;;;-0.40;52.77;97791.44;4457489;32;19977;-94
2022/12/12 09:15:07;;;;;;;;;;;;;;;0.25;51.67;97773.25;4456779;32;19974;-95
2022/12/12 09:17:33;;;;;;;;;;;;;;;-0.12;52.39;97776.88;4457441;32;19996;-96
2022/12/12 09:19:58;;;;;;;;;;;;;;;0.14;51.65;97777.00;4442664;32;19969;-93
2022/12/12 09:22:23;;;;;;;;;;;;;;;-0.06;52.51;97768.94;4456795;32;19977;-93
2022/12/12 09:24:48;;;;;;;;;;;;;;;0.08;52.08;97766.81;4442501;32;19981;-93
2022/12/12 09:27:14;;;;;;;;;;;;;;;0.40;51.50;97772.78;4456274;32;19995;-94
2022/12/12 09:29:39;;;;;;;;;;;;;;;0.48;51.16;97770.81;4456132;32;19965;-96
2022/12/12 09:32:05;;;;;;;;;;;;;;;0.14;51.91;97766.66;4441455;32;20332;-94
2022/12/12 09:34:31;;;;;;;;;;;;;;;-0.08;52.02;97770.72;4442674;32;20025;-94
2022/12/12 09:36:56;;;;;;;;;;;;;;;-0.44;52.66;97782.06;4442203;32;19981;-93
2022/12/12 09:39:21;;;;;;;;;;;;;;;-0.40;53.47;97772.47;4456883;32;19988;-92
2022/12/12 09:41:47;;;;;;;;;;;;;;;0.06;53.21;97771.22;4455942;32;19973;-94
2022/12/12 09:44:14;;;;;;;;;;;;;;;0.49;52.57;97766.50;4455669;32;20056;-93
2022/12/12 09:46:43;;;;;;;;;;;;;;;0.29;51.93;97757.59;4456177;32;20316;-88
2022/12/12 09:49:12;;;;;;;;;;;;;;;0.12;52.78;97763.25;4455739;32;19973;-94
2022/12/12 09:51:37;;;;;;;;;;;;;;;0.34;52.70;97773.81;4455477;32;20029;-92
2022/12/12 09:54:02;;;;;;;;;;;;;;;0.90;51.24;97753.97;4441251;32;19996;-91
2022/12/12 09:56:51;;;;;;;;;;;;;;;1.17;51.28;97750.47;4455433;32;20078;-90
2022/12/12 09:59:18;;;;;;;;;;;;;;;0.55;51.86;97749.00;4392799;32;19983;-90
2022/12/12 10:01:43;;;;;;;;;;;;;;;0.42;51.86;97759.78;4380779;32;20042;-88
2022/12/12 10:04:27;;;;;;;;;;;;;;;-0.24;53.81;97784.09;4391920;32;20061;-90
2022/12/12 10:06:57;;;;;;;;;;;;;;;0.43;51.95;97774.47;4391939;32;20054;-90
2022/12/12 10:09:22;;;;;;;;;;;;;;;-0.04;52.56;97772.34;4379330;32;20290;-90
2022/12/12 10:11:50;;;;;;;;;;;;;;;-0.35;53.14;97778.34;4391819;32;20025;-87
2022/12/12 10:14:38;;;;;;;;;;;;;;;0.15;52.33;97777.84;4392151;32;20093;-91
2022/12/12 10:17:06;;;;;;;;;;;;;;;0.02;53.26;97781.69;4385732;32;20248;-88
2022/12/12 10:19:33;;;;;;;;;;;;;;;0.00;52.90;97784.34;4380892;32;19981;-89
2022/12/12 10:22:03;;;;;;;;;;;;;;;0.38;51.91;97774.56;4380418;32;19978;-89
2022/12/12 10:24:30;;;;;;;;;;;;;;;0.56;51.81;97784.41;4381904;32;20058;-90
2022/12/12 10:26:56;;;;;;;;;;;;;;;0.51;51.75;97782.84;4391836;32;20127;-87
2022/12/12 10:29:23;;;;;;;;;;;;;;;0.42;51.91;97790.87;4379433;32;19997;-88
2022/12/12 10:31:54;;;;;;;;;;;;;;;0.83;50.94;97789.63;4378927;32;20029;-91
2022/12/12 10:34:34;;;;;;;;;;;;;;;0.57;51.95;97801.62;4389511;32;19990;-93
2022/12/12 10:37:00;;;;;;;;;;;;;;;0.54;51.83;97787.91;4429292;32;19981;-93
2022/12/12 10:39:34;;;;;;;;;;;;;;;0.54;51.70;97809.50;4439327;32;20227;-93
2022/12/12 10:42:09;;;;;;;;;;;;;;;1.12;51.12;97809.44;4425348;32;19988;-93
2022/12/12 10:44:43;;;;;;;;;;;;;;;1.18;50.33;97803.22;4441401;32;19982;-92
2022/12/12 10:47:09;;;;;;;;;;;;;;;1.22;50.37;97814.31;4441391;32;19986;-94
2022/12/12 10:49:35;;;;;;;;;;;;;;;1.47;49.48;97799.66;4425975;32;19978;-94
2022/12/12 10:52:01;;;;;;;;;;;;;;;1.22;49.64;97807.41;4440854;32;20403;-93
2022/12/12 10:54:27;;;;;;;;;;;;;;;1.54;49.05;97806.31;4427490;32;19977;-93
2022/12/12 10:57:08;;;;;;;;;;;;;;;1.73;48.63;97800.50;4427447;32;20024;-93
2022/12/12 10:59:40;;;;;;;;;;;;;;;1.97;47.67;97801.41;4441468;32;19988;-93
2022/12/12 11:02:09;;;;;;;;;;;;;;;1.52;49.48;97804.66;4427355;32;19969;-93
2022/12/12 11:04:34;;;;;;;;;;;;;;;1.18;50.33;97808.41;4427453;32;19969;-93
2022/12/12 11:06:59;;;;;;;;;;;;;;;1.06;51.08;97813.97;4427520;32;20023;-93
2022/12/12 11:09:27;;;;;;;;;;;;;;;1.47;49.54;97810.03;4441741;32;19974;-93
2022/12/12 11:11:57;;;;;;;;;;;;;;;1.39;49.60;97812.00;4441694;32;19986;-93
2022/12/12 11:14:27;;;;;;;;;;;;;;;1.42;49.40;97811.09;4441554;32;19970;-93
2022/12/12 11:16:52;;;;;;;;;;;;;;;0.94;50.72;97808.25;4427591;32;20052;-93
2022/12/12 11:19:24;;;;;;;;;;;;;;;1.12;51.02;97830.19;4427577;32;20001;-93
2022/12/12 11:21:49;;;;;;;;;;;;;;;1.13;51.23;97823.25;4427619;32;19977;-93
2022/12/12 11:24:16;;;;;;;;;;;;;;;1.62;50.44;97823.38;4441448;32;20340;-94
2022/12/12 11:26:48;;;;;;;;;;;;;;;1.01;52.77;97827.09;4427561;32;20011;-93
2022/12/12 11:29:37;;;;;;;;;;;;;;;0.26;54.42;97827.59;4427513;32;20384;-94
2022/12/12 11:32:02;;;;;;;;;;;;;;;0.78;53.46;97827.81;4432507;32;20013;-93
2022/12/12 11:34:27;;;;;;;;;;;;;;;0.58;53.73;97829.25;4441123;32;20051;-93
2022/12/12 11:36:53;;;;;;;;;;;;;;;0.87;53.45;97835.31;4427126;32;19996;-94
2022/12/12 11:39:27;;;;;;;;;;;;;;;0.97;52.51;97823.75;4427419;32;19996;-94
2022/12/12 11:42:15;;;;;;;;;;;;;;;1.06;52.51;97819.16;4427373;32;19980;-93
2022/12/12 11:44:41;;;;;;;;;;;;;;;1.18;51.40;97818.78;4432752;32;20330;-93
2022/12/12 11:47:22;;;;;;;;;;;;;;;0.69;51.11;97831.50;4427080;32;20041;-94
2022/12/12 11:49:49;;;;;;;;;;;;;;;0.71;50.40;97832.31;4441130;32;19993;-93
2022/12/12 11:52:21;;;;;;;;;;;;;;;0.23;51.25;97842.38;4441183;32;20021;-93
2022/12/12 11:54:47;;;;;;;;;;;;;;;-0.11;52.48;97845.91;4426774;32;20009;-93
2022/12/12 11:57:32;;;;;;;;;;;;;;;0.44;52.10;97854.72;4440962;32;20012;-94
2022/12/12 12:00:05;;;;;;;;;;;;;;;0.31;52.67;97854.22;4426947;32;19970;-94
2022/12/12 12:02:39;;;;;;;;;;;;;;;0.83;51.16;97843.22;4426513;32;19974;-94
2022/12/12 12:05:17;;;;;;;;;;;;;;;0.16;52.39;97847.72;4427032;32;20317;-93
2022/12/12 12:07:42;;;;;;;;;;;;;;;0.40;52.79;97855.69;4427021;32;20084;-93
2022/12/12 12:10:13;;;;;;;;;;;;;;;0.08;54.27;97862.62;4440967;32;20002;-93
2022/12/12 12:12:45;;;;;;;;;;;;;;;-0.11;55.12;97856.25;4426984;32;19996;-94
2022/12/12 12:15:17;;;;;;;;;;;;;;;-0.26;56.42;97849.75;4440843;32;19995;-94
2022/12/12 12:18:01;;;;;;;;;;;;;;;0.72;54.76;97846.16;4441016;32;19985;-94
2022/12/12 12:20:39;;;;;;;;;;;;;;;0.33;55.38;97844.69;4440920;32;20027;-93
2022/12/12 12:23:22;;;;;;;;;;;;;;;0.86;54.43;97846.56;4440768;32;19999;-93
2022/12/12 12:26:07;;;;;;;;;;;;;;;1.14;54.17;97832.72;4441183;32;20307;-93
2022/12/12 12:28:46;;;;;;;;;;;;;;;0.87;54.81;97850.00;4427160;32;20008;-93
2022/12/12 12:31:11;;;;;;;;;;;;;;;0.63;56.03;97842.06;4427140;32;20330;-94
2022/12/12 12:33:54;;;;;;;;;;;;;;;0.49;55.80;97845.06;4440775;32;19970;-93
2022/12/12 12:36:24;;;;;;;;;;;;;;;0.76;55.65;97838.22;4440888;32;19993;-93
2022/12/12 12:38:49;;;;;;;;;;;;;;;1.10;54.64;97820.75;4426753;32;20008;-94
2022/12/12 12:41:23;;;;;;;;;;;;;;;0.99;53.59;97823.69;4440801;32;19982;-93
2022/12/12 12:43:48;;;;;;;;;;;;;;;0.52;54.38;97829.44;4440761;32;19977;-94
2022/12/12 12:46:17;;;;;;;;;;;;;;;0.93;52.07;97829.09;4440701;32;19989;-94
2022/12/12 12:48:52;;;;;;;;;;;;;;;1.00;51.36;97830.56;4440753;32;19985;-94
2022/12/12 12:51:18;;;;;;;;;;;;;;;0.36;52.29;97835.97;4426703;32;20002;-93
2022/12/12 12:53:46;;;;;;;;;;;;;;;0.07;52.80;97824.69;4426819;32;20027;-94
2022/12/12 12:56:25;;;;;;;;;;;;;;;0.31;52.60;97845.59;4440623;32;20031;-94
2022/12/12 12:58:51;;;;;;;;;;;;;;;-0.20;53.96;97844.41;4426794;32;20000;-94
2022/12/12 13:01:24;;;;;;;;;;;;;;;0.10;54.15;97850.50;4426523;32;20017;-94
2022/12/12 13:04:04;;;;;;;;;;;;;;;0.41;53.39;97843.59;4426529;32;20128;-94
2022/12/12 13:06:35;;;;;;;;;;;;;;;0.03;54.77;97864.50;4425572;32;20005;-93
2022/12/12 13:09:19;;;;;;;;;;;;;;;0.12;55.52;97869.44;4440619;32;20358;-94
2022/12/12 13:11:44;;;;;;;;;;;;;;;-0.19;56.29;97866.81;4440508;32;19991;-93
2022/12/12 13:14:30;;;;;;;;;;;;;;;0.41;54.74;97862.59;4426458;32;20021;-94
2022/12/12 13:16:55;;;;;;;;;;;;;;;0.86;54.14;97853.50;4429480;32;20026;-93